createdAt,value
2019-01-09T00:02:32.953Z,85.14
2019-01-09T00:05:46.693Z,85.36
2019-01-09T00:09:00.803Z,85.45
2019-01-09T00:12:14.959Z,86.33
2019-01-09T00:15:28.734Z,86.75
2019-01-09T00:18:42.531Z,87.07
2019-01-09T00:21:56.705Z,86.77
2019-01-09T00:25:10.902Z,87.06
2019-01-09T00:28:25.286Z,86.82
2019-01-09T00:31:39.227Z,86.86
2019-01-09T00:34:53.306Z,86.71
2019-01-09T00:38:15.434Z,86.47
2019-01-09T00:41:29.176Z,86.14
2019-01-09T00:44:43.048Z,86.14
2019-01-09T00:47:57.119Z,86.09
2019-01-09T00:51:10.995Z,86.38
2019-01-09T00:54:24.787Z,85.89
2019-01-09T00:57:38.536Z,86.82
2019-01-09T01:00:52.515Z,86.54
2019-01-09T01:04:38.243Z,86.35
2019-01-09T01:08:15.383Z,85.98
2019-01-09T01:12:16.631Z,85.74
2019-01-09T01:16:04.193Z,86.62
2019-01-09T01:19:34.027Z,86.26
2019-01-09T01:23:37.799Z,86.07
2019-01-09T01:27:16.442Z,86.04
2019-01-09T01:31:14.139Z,86.51
2019-01-09T01:34:55.217Z,86.22
2019-01-09T01:38:39.887Z,86.02
2019-01-09T01:42:48.284Z,86.28
2019-01-09T01:46:43.515Z,86.06
2019-01-09T01:50:54.075Z,85.96
2019-01-09T01:54:51.814Z,86.01
2019-01-09T01:58:43.699Z,86.03
2019-01-09T02:02:26.982Z,85.44
2019-01-09T02:06:08.554Z,85.93
2019-01-09T02:10:12.564Z,86.15
2019-01-09T02:13:49.033Z,86.27
2019-01-09T02:18:01.854Z,86.44
2019-01-09T02:21:32.376Z,86.18
2019-01-09T02:25:03.131Z,86.16
2019-01-09T02:29:04.443Z,86.13
2019-01-09T02:32:30.021Z,86.21
2019-01-09T02:35:43.626Z,86.32
2019-01-09T02:38:57.153Z,86.41
2019-01-09T02:42:10.721Z,86.67
2019-01-09T02:45:24.549Z,87.36
2019-01-09T02:48:38.197Z,87.17
2019-01-09T02:51:52.317Z,87.05
2019-01-09T02:55:06.469Z,87.42
2019-01-09T02:58:20.377Z,87.31
2019-01-09T03:01:34.338Z,87.19
2019-01-09T03:04:48.233Z,87.01
2019-01-09T03:08:02.514Z,86.88
2019-01-09T03:11:16.391Z,86.84
2019-01-09T03:14:30.549Z,86.79
2019-01-09T03:17:44.696Z,86.81
2019-01-09T03:20:58.864Z,86.64
2019-01-09T03:24:12.612Z,86.41
2019-01-09T03:27:26.631Z,86.48
2019-01-09T03:30:40.209Z,86.33
2019-01-09T03:33:53.979Z,86.08
2019-01-09T03:37:07.523Z,86.14
2019-01-09T03:40:21.279Z,86.90
2019-01-09T03:43:35.337Z,86.63
2019-01-09T03:46:49.399Z,86.64
2019-01-09T03:50:03.572Z,86.31
2019-01-09T03:53:17.458Z,86.05
2019-01-09T03:56:31.310Z,86.47
2019-01-09T03:59:45.474Z,86.36
2019-01-09T04:02:59.541Z,86.83
2019-01-09T04:06:13.470Z,86.64
2019-01-09T04:09:29.459Z,86.99
2019-01-09T04:12:43.389Z,86.60
2019-01-09T04:15:57.559Z,85.65
2019-01-09T04:19:11.614Z,85.01
2019-01-09T04:22:25.377Z,84.79
2019-01-09T04:25:38.950Z,84.81
2019-01-09T04:28:52.880Z,84.66
2019-01-09T04:32:06.577Z,83.87
2019-01-09T04:35:20.612Z,83.86
2019-01-09T04:38:34.602Z,83.83
2019-01-09T04:41:48.134Z,83.33
2019-01-09T04:45:02.052Z,82.93
2019-01-09T04:48:15.875Z,82.90
2019-01-09T04:51:29.426Z,81.29
2019-01-09T04:54:43.320Z,81.43
2019-01-09T04:57:57.203Z,81.76
2019-01-09T05:01:11.080Z,81.89
2019-01-09T05:04:24.656Z,82.33
2019-01-09T05:07:38.273Z,82.08
2019-01-09T05:10:52.165Z,82.70
2019-01-09T05:14:06.289Z,81.88
2019-01-09T05:17:19.957Z,81.52
2019-01-09T05:20:33.596Z,81.75
2019-01-09T05:23:47.356Z,82.21
2019-01-09T05:27:01.585Z,82.31
2019-01-09T05:30:15.628Z,81.65
2019-01-09T05:33:30.337Z,81.79
2019-01-09T05:36:43.916Z,83.79
2019-01-09T05:39:57.456Z,84.46
2019-01-09T05:43:11.051Z,85.80
2019-01-09T05:46:24.830Z,86.35
2019-01-09T05:49:39.683Z,86.40
2019-01-09T05:52:53.741Z,87.03
2019-01-09T05:56:07.747Z,87.32
2019-01-09T05:59:21.763Z,87.52
2019-01-09T06:02:36.024Z,87.48
2019-01-09T06:05:49.669Z,87.89
2019-01-09T06:09:05.044Z,88.06
2019-01-09T06:12:18.591Z,88.27
2019-01-09T06:15:32.340Z,88.56
2019-01-09T06:18:45.891Z,87.93
2019-01-09T06:21:59.612Z,87.93
2019-01-09T06:25:13.272Z,87.51
2019-01-09T06:28:27.099Z,87.71
2019-01-09T06:31:41.202Z,87.74
2019-01-09T06:34:54.827Z,87.38
2019-01-09T06:38:08.591Z,86.57
2019-01-09T06:41:22.108Z,87.22
2019-01-09T06:44:35.643Z,86.89
2019-01-09T06:47:49.860Z,86.25
2019-01-09T06:51:03.875Z,86.04
2019-01-09T06:54:17.448Z,85.64
2019-01-09T06:57:30.957Z,85.14
2019-01-09T07:00:45.081Z,85.68
2019-01-09T07:03:58.736Z,85.06
2019-01-09T07:07:12.368Z,85.74
2019-01-09T07:10:25.899Z,86.35
2019-01-09T07:13:39.720Z,85.89
2019-01-09T07:16:53.667Z,85.30
2019-01-09T07:20:07.717Z,85.23
2019-01-09T07:23:21.257Z,85.24
2019-01-09T07:26:34.995Z,85.04
2019-01-09T07:29:48.722Z,84.21
2019-01-09T07:33:02.688Z,83.93
2019-01-09T07:36:16.483Z,82.60
2019-01-09T07:39:31.093Z,82.04
2019-01-09T07:42:45.230Z,81.42
2019-01-09T07:45:59.104Z,79.40
2019-01-09T07:49:12.997Z,79.43
2019-01-09T07:52:27.307Z,80.11
2019-01-09T07:55:41.266Z,79.76
2019-01-09T07:58:54.837Z,78.22
2019-01-09T08:02:08.627Z,78.35
2019-01-09T08:05:22.395Z,79.67
2019-01-09T08:08:36.090Z,79.45
2019-01-09T08:11:49.890Z,79.74
2019-01-09T08:15:04.354Z,79.03
2019-01-09T08:18:18.304Z,80.23
2019-01-09T08:21:31.542Z,79.46
2019-01-09T08:24:45.725Z,78.92
2019-01-09T08:27:59.671Z,78.98
2019-01-09T08:31:13.737Z,78.87
2019-01-09T08:34:28.156Z,79.15
2019-01-09T08:37:42.809Z,78.76
2019-01-09T08:40:57.367Z,78.81
2019-01-09T08:44:11.477Z,78.43
2019-01-09T08:47:25.178Z,78.17
2019-01-09T08:50:39.128Z,77.73
2019-01-09T08:54:13.044Z,77.48
2019-01-09T08:57:27.040Z,76.10
2019-01-09T09:00:42.761Z,73.94
2019-01-09T09:03:56.998Z,74.59
2019-01-09T09:07:11.039Z,73.17
2019-01-09T09:10:24.926Z,74.75
2019-01-09T09:13:39.303Z,73.36
2019-01-09T09:16:52.827Z,73.09
2019-01-09T09:20:07.749Z,74.75
2019-01-09T09:23:21.379Z,73.55
2019-01-09T09:26:35.428Z,74.60
2019-01-09T09:29:49.176Z,72.98
2019-01-09T09:33:03.097Z,71.48
2019-01-09T09:36:16.635Z,70.55
2019-01-09T09:39:30.426Z,70.03
2019-01-09T09:42:44.211Z,69.54
2019-01-09T09:45:58.703Z,70.30
2019-01-09T09:49:28.159Z,68.64
2019-01-09T09:52:42.689Z,67.79
2019-01-09T09:55:57.455Z,67.66
2019-01-09T09:59:11.903Z,68.16
2019-01-09T10:02:25.788Z,68.20
2019-01-09T10:05:39.954Z,69.91
2019-01-09T10:08:53.936Z,70.22
2019-01-09T10:12:07.883Z,68.48
2019-01-09T10:15:21.708Z,69.37
2019-01-09T10:18:35.625Z,70.31
2019-01-09T10:21:49.694Z,70.65
2019-01-09T10:25:04.087Z,72.21
2019-01-09T10:28:17.794Z,71.61
2019-01-09T10:31:31.657Z,73.06
2019-01-09T10:34:45.543Z,72.00
2019-01-09T10:37:59.379Z,73.62
2019-01-09T10:41:13.436Z,73.96
2019-01-09T10:44:27.317Z,74.55
2019-01-09T10:47:41.246Z,74.54
2019-01-09T10:50:55.045Z,75.05
2019-01-09T10:54:09.173Z,74.24
2019-01-09T10:57:23.178Z,75.25
2019-01-09T11:04:09.256Z,75.11
2019-01-09T11:07:23.403Z,73.45
2019-01-09T11:10:36.939Z,71.86
2019-01-09T11:13:50.578Z,71.88
2019-01-09T11:17:04.412Z,71.47
2019-01-09T11:20:19.497Z,68.62
2019-01-09T11:23:33.515Z,69.69
2019-01-09T11:26:47.545Z,69.95
2019-01-09T11:30:01.373Z,68.99
2019-01-09T11:33:14.948Z,69.33
2019-01-09T11:36:29.032Z,67.15
2019-01-09T11:39:42.671Z,68.04
2019-01-09T11:42:57.118Z,68.35
2019-01-09T11:46:10.915Z,67.54
2019-01-09T11:49:24.923Z,67.48
2019-01-09T12:00:49.061Z,63.08
2019-01-09T12:04:02.771Z,62.02
2019-01-09T12:07:16.687Z,60.95
2019-01-09T12:10:30.724Z,61.68
2019-01-09T12:13:44.381Z,59.96
2019-01-09T12:16:58.051Z,60.82
2019-01-09T12:20:13.746Z,58.67
2019-01-09T12:23:27.561Z,58.97
2019-01-09T12:26:41.401Z,60.97
2019-01-09T12:29:55.358Z,58.11
2019-01-09T12:33:09.049Z,59.15
2019-01-09T12:36:23.231Z,60.78
2019-01-09T12:39:36.916Z,60.33
2019-01-09T12:42:50.606Z,62.26
2019-01-09T12:46:04.973Z,62.32
2019-01-09T12:49:18.704Z,62.62
2019-01-09T12:52:32.374Z,62.68
2019-01-09T12:55:46.758Z,62.34
2019-01-09T12:59:01.630Z,63.49
2019-01-09T13:02:15.722Z,62.38
2019-01-09T13:05:29.489Z,62.34
2019-01-09T13:08:43.075Z,61.83
2019-01-09T13:11:56.747Z,62.36
2019-01-09T13:15:10.948Z,61.89
2019-01-09T13:18:24.878Z,61.36
2019-01-09T13:21:38.612Z,61.01
2019-01-09T13:24:52.361Z,62.71
2019-01-09T13:28:07.608Z,61.65
2019-01-09T13:31:21.468Z,63.38
2019-01-09T13:34:35.675Z,61.96
2019-01-09T13:37:49.479Z,61.90
2019-01-09T13:41:04.104Z,63.05
2019-01-09T13:44:17.867Z,62.22
2019-01-09T13:47:32.433Z,62.45
2019-01-09T13:50:46.215Z,64.12
2019-01-09T13:54:00.303Z,62.79
2019-01-09T13:57:14.047Z,61.27
2019-01-09T14:00:27.650Z,62.29
2019-01-09T14:03:41.379Z,63.01
2019-01-09T14:06:55.105Z,62.59
2019-01-09T14:10:11.652Z,62.81
2019-01-09T14:13:25.289Z,62.92
2019-01-09T14:16:38.917Z,63.36
2019-01-09T14:19:52.946Z,64.00
2019-01-09T14:23:07.022Z,62.54
2019-01-09T14:26:20.855Z,62.38
2019-01-09T14:29:35.200Z,63.01
2019-01-09T14:32:49.975Z,62.15
2019-01-09T14:36:03.989Z,63.68
2019-01-09T14:39:17.737Z,63.87
2019-01-09T14:42:31.838Z,63.28
2019-01-09T14:45:45.509Z,64.45
2019-01-09T14:48:59.233Z,66.25
2019-01-09T14:52:13.265Z,67.85
2019-01-09T14:55:27.012Z,69.73
2019-01-09T14:58:40.783Z,70.65
2019-01-09T15:01:54.955Z,70.55
2019-01-09T15:05:09.040Z,71.45
2019-01-09T15:08:22.784Z,71.33
2019-01-09T15:11:36.425Z,71.04
2019-01-09T15:14:50.032Z,71.77
2019-01-09T15:18:04.301Z,70.65
2019-01-09T15:21:18.471Z,71.38
2019-01-09T15:24:33.536Z,71.08
2019-01-09T15:27:48.303Z,70.77
2019-01-09T15:31:02.112Z,70.44
2019-01-09T15:34:16.158Z,70.30
2019-01-09T15:37:29.940Z,69.78
2019-01-09T15:40:43.658Z,70.36
2019-01-09T15:43:57.429Z,68.42
2019-01-09T15:47:11.147Z,70.68
2019-01-09T15:50:25.447Z,69.75
2019-01-09T15:53:39.752Z,69.43
2019-01-09T15:56:53.766Z,68.67
2019-01-09T16:00:14.015Z,68.21
2019-01-09T16:03:27.747Z,67.38
2019-01-09T16:06:41.687Z,68.34
2019-01-09T16:09:55.811Z,66.56
2019-01-09T16:13:09.541Z,66.45
2019-01-09T16:16:23.445Z,66.28
2019-01-09T16:19:37.678Z,66.18
2019-01-09T16:22:51.315Z,67.01
2019-01-09T16:26:05.298Z,65.61
2019-01-09T16:29:18.960Z,65.91
2019-01-09T16:32:32.612Z,65.18
2019-01-09T16:35:46.636Z,66.30
2019-01-09T16:39:00.565Z,66.54
2019-01-09T16:42:14.144Z,66.20
2019-01-09T16:45:28.139Z,66.30
2019-01-09T16:48:41.989Z,66.39
2019-01-09T16:51:55.962Z,65.36
2019-01-09T16:55:09.938Z,64.97
2019-01-09T16:58:24.117Z,66.05
2019-01-09T17:01:37.896Z,64.28
2019-01-09T17:04:51.727Z,65.66
2019-01-09T17:08:05.802Z,65.76
2019-01-09T17:11:19.630Z,65.67
2019-01-09T17:14:33.470Z,64.15
2019-01-09T17:17:47.348Z,66.33
2019-01-09T17:21:01.755Z,65.54
2019-01-09T17:24:15.957Z,65.47
2019-01-09T17:27:35.880Z,67.24
2019-01-09T17:30:49.852Z,66.43
2019-01-09T17:34:03.876Z,67.75
2019-01-09T17:37:17.779Z,67.26
2019-01-09T17:40:40.694Z,67.27
2019-01-09T17:43:47.669Z,66.81
2019-01-09T17:47:01.389Z,68.01
2019-01-09T17:50:19.653Z,67.92
2019-01-09T17:53:34.314Z,68.50
2019-01-09T17:56:48.032Z,68.11
2019-01-09T18:00:02.086Z,67.89
2019-01-09T18:03:16.179Z,67.76
2019-01-09T18:06:30.799Z,67.79
2019-01-09T18:09:44.829Z,67.87
2019-01-09T18:12:58.704Z,68.42
2019-01-09T18:16:12.473Z,68.48
2019-01-09T18:19:26.307Z,69.12
2019-01-09T18:22:39.988Z,67.85
2019-01-09T18:25:54.055Z,68.41
2019-01-09T18:29:07.873Z,69.45
2019-01-09T18:32:46.658Z,69.58
2019-01-09T18:36:36.404Z,70.20
2019-01-09T18:40:27.224Z,70.90
2019-01-09T18:44:16.347Z,69.84
2019-01-09T18:48:21.366Z,71.55
2019-01-09T18:52:25.619Z,72.91
2019-01-09T18:55:39.484Z,72.68
2019-01-09T18:58:53.334Z,72.85
2019-01-09T19:02:07.185Z,72.50
2019-01-09T19:05:21.269Z,72.41
2019-01-09T19:17:21.850Z,72.33
2019-01-09T19:20:35.519Z,71.27
2019-01-09T19:23:49.261Z,72.01
2019-01-09T19:27:03.970Z,72.04
2019-01-09T19:30:21.359Z,70.47
2019-01-09T19:33:35.160Z,70.38
2019-01-09T19:36:48.889Z,70.71
2019-01-09T19:40:03.613Z,69.28
2019-01-09T19:43:17.398Z,71.05
2019-01-09T19:46:31.217Z,70.87
2019-01-09T19:49:45.414Z,69.06
2019-01-09T19:52:59.245Z,68.79
2019-01-09T19:56:13.268Z,69.45
2019-01-09T19:59:27.227Z,69.00
2019-01-09T20:02:41.403Z,68.63
2019-01-09T20:05:55.332Z,69.77
2019-01-09T20:09:09.301Z,69.19
2019-01-09T20:12:22.979Z,69.59
2019-01-09T20:15:36.925Z,69.96
2019-01-09T20:18:50.956Z,69.13
2019-01-09T20:22:04.974Z,68.54
2019-01-09T20:25:19.220Z,68.28
2019-01-09T20:28:35.455Z,69.48
2019-01-09T20:31:48.895Z,68.96
2019-01-09T20:35:03.662Z,69.30
2019-01-09T20:38:17.551Z,69.55
2019-01-09T20:41:35.445Z,68.38
2019-01-09T20:44:46.961Z,69.55
2019-01-09T20:48:00.901Z,69.04
2019-01-09T20:51:14.655Z,70.92
2019-01-09T20:54:28.582Z,69.70
2019-01-09T20:57:42.991Z,69.69
2019-01-09T21:00:56.812Z,70.00
2019-01-09T21:04:11.066Z,70.38
2019-01-09T21:07:24.742Z,68.93
2019-01-09T21:10:38.535Z,69.79
2019-01-09T21:13:52.242Z,69.79
2019-01-09T21:17:05.925Z,70.72
2019-01-09T21:20:20.329Z,70.31
2019-01-09T21:23:34.033Z,70.45
2019-01-09T21:26:48.433Z,70.14
2019-01-09T21:30:03.498Z,70.93
2019-01-09T21:33:17.055Z,70.64
2019-01-09T21:36:30.840Z,71.01
2019-01-09T21:39:44.948Z,70.29
2019-01-09T21:42:58.763Z,70.06
2019-01-09T21:46:12.765Z,69.35
2019-01-09T21:49:26.580Z,69.95
2019-01-09T21:52:40.556Z,70.99
2019-01-09T21:55:54.316Z,71.31
2019-01-09T21:59:07.855Z,70.26
2019-01-09T22:02:21.533Z,69.98
2019-01-09T22:05:35.657Z,70.98
2019-01-09T22:08:49.583Z,71.43
2019-01-09T22:12:03.658Z,71.54
2019-01-09T22:15:17.700Z,70.56
2019-01-09T22:18:31.949Z,71.23
2019-01-09T22:21:45.488Z,71.14
2019-01-09T22:24:59.833Z,71.70
2019-01-09T22:28:13.746Z,71.32
2019-01-09T22:31:27.312Z,71.60
2019-01-09T22:34:41.049Z,71.71
2019-01-09T22:37:54.945Z,71.86
2019-01-09T22:41:08.644Z,71.64
2019-01-09T22:44:22.550Z,72.37
2019-01-09T22:47:36.443Z,72.82
2019-01-09T22:50:50.279Z,72.45
2019-01-09T22:54:04.028Z,72.59
2019-01-09T22:57:17.625Z,73.46
2019-01-09T23:03:51.597Z,73.00
2019-01-09T23:07:05.653Z,73.21
2019-01-09T23:10:19.294Z,72.87
2019-01-09T23:13:33.241Z,73.02
2019-01-09T23:16:46.799Z,72.66
2019-01-09T23:20:00.489Z,72.69
2019-01-09T23:23:14.606Z,73.00
2019-01-09T23:26:28.401Z,72.48
2019-01-09T23:29:42.019Z,73.11
2019-01-09T23:32:55.885Z,72.95
2019-01-09T23:36:09.871Z,72.94
2019-01-09T23:39:23.645Z,73.41
2019-01-09T23:42:37.498Z,72.23
2019-01-09T23:45:51.511Z,71.98
2019-01-09T23:49:05.171Z,71.96
2019-01-09T23:52:18.918Z,72.30
2019-01-09T23:55:32.576Z,72.28
2019-01-09T23:58:46.235Z,72.72
